Morgantown, WV (26506)

2:06 PM EDT on September 16, 2014 (GMT -0400)
HADS MONONGAHELA RIVER MORGANTOWN LOC WV US USARMY-COE | Change Station
CLOSE
Current Station
Personal Weather Station
Location: Morgantown, WV
Elevation: 818 ft
Nearby Weather Stations

Elev 818 ft 39.62 °N, 79.97 °W | Updated 1 hour ago

Overcast
Overcast
67 °F
Feels Like 67 °F
N
Wind Variable Wind from North
Gusts 0.0 mph

Today
High -- | Low -- °F
--% Chance of Precip.
Yesterday
High -- | Low -- °F
Precip. -- in
7:01 AM 7:26 PM
Last Quarter, 43% visible
Pressure 30.10 in
Visibility 10.0 miles
Clouds Mostly Cloudy 3500 ft
Mostly Cloudy 4600 ft
Dew Point Not available.
Humidity Not available.
Rainfall 0.03 in
Snow Depth Not available.
UV 4 out of 12
Pollen 3.50 out of 12
Air Quality Not available.
Flu Activity Not available.
METAR KMGW 161753Z 01007KT 10SM BKN035 BKN046 19/10 A3011 RMK AO2 SLP193 T01940100 10206 20150 58007

More Conditions Fewer Conditions

Pressure 30.10 in
Visibility 10.0 miles
Clouds Mostly Cloudy 3500 ft
Mostly Cloudy 4600 ft
Dew Point Not available.
Humidity Not available.
Rainfall 0.03 in
Snow Depth Not available.
UV 4 out of 12
Pollen 3.50 out of 12
Air Quality Not available.
Flu Activity Not available.
METAR KMGW 161753Z 01007KT 10SM BKN035 BKN046 19/10 A3011 RMK AO2 SLP193 T01940100 10206 20150 58007

More Conditions Fewer Conditions

10-Day Weather Forecast

Almanac

Astronomy

Sep. 16, 2014 Rise Set
Actual Time 7:01 AM EDT 7:26 PM EDT
Civil Twilight 6:34 AM EDT 7:53 PM EDT
Nautical Twilight 6:03 AM EDT 8:25 PM EDT
Astronomical Twilight 5:30 AM EDT 8:57 PM EDT
Moon 12:11 AM EDT 2:48 PM EDT
Length of Visible Light 13h 18m
Length of Day
12h 24m
Tomorrow will be 2m 34s shorter.
Last Quarter, 43% of the Moon is Illuminated
Today
Last Quarter
Sep 24
New
Oct 1
First Quarter
Oct 8
Full
Oct 15
Last Quarter

Today's Extremes

State Highs State Lows

Community

WunderPhotos

Upload Photos

1,753,848 photos uploaded!

Nearby

Snow Depth

Station Depth Elevation
No new snow has been reported.

Earthquake Activity

City Distance Mag. Time & Date
No recent earthquake activity has been reported nearby.
Minimum magnitude displayed is 2.5.

Coastal Water Temperatures

Place Temperature
No Stations Reporting

Nearby Weather Stations